sensor_id;sensor_type;location;lat;lon;timestamp;P1;durP1;ratioP1;P2;durP2;ratioP2
74229;SDS011;62589;12.568;99.958;2022-10-16T00:01:26;8.00;;;5.47;;
74229;SDS011;62589;12.568;99.958;2022-10-16T00:03:54;8.40;;;5.95;;
74229;SDS011;62589;12.568;99.958;2022-10-16T00:06:21;6.68;;;5.53;;
74229;SDS011;62589;12.568;99.958;2022-10-16T00:08:49;7.53;;;5.50;;
74229;SDS011;62589;12.568;99.958;2022-10-16T00:11:17;7.03;;;5.72;;
74229;SDS011;62589;12.568;99.958;2022-10-16T00:13:46;8.50;;;5.93;;
74229;SDS011;62589;12.568;99.958;2022-10-16T00:16:13;7.65;;;6.03;;
74229;SDS011;62589;12.568;99.958;2022-10-16T00:18:40;8.35;;;5.93;;
74229;SDS011;62589;12.568;99.958;2022-10-16T00:21:09;7.75;;;5.95;;
74229;SDS011;62589;12.568;99.958;2022-10-16T00:23:37;7.15;;;5.93;;
74229;SDS011;62589;12.568;99.958;2022-10-16T00:26:05;5.60;;;5.03;;
74229;SDS011;62589;12.568;99.958;2022-10-16T00:28:33;5.95;;;4.72;;
74229;SDS011;62589;12.568;99.958;2022-10-16T00:31:04;8.55;;;5.78;;
74229;SDS011;62589;12.568;99.958;2022-10-16T00:33:34;5.63;;;5.13;;
74229;SDS011;62589;12.568;99.958;2022-10-16T00:36:01;6.43;;;5.00;;
74229;SDS011;62589;12.568;99.958;2022-10-16T00:38:29;6.82;;;5.55;;
74229;SDS011;62589;12.568;99.958;2022-10-16T00:40:56;8.15;;;6.03;;
74229;SDS011;62589;12.568;99.958;2022-10-16T00:46:20;6.35;;;5.55;;
74229;SDS011;62589;12.568;99.958;2022-10-16T00:49:14;8.27;;;5.82;;
74229;SDS011;62589;12.568;99.958;2022-10-16T00:51:43;6.47;;;5.55;;
74229;SDS011;62589;12.568;99.958;2022-10-16T00:54:30;8.50;;;5.90;;
74229;SDS011;62589;12.568;99.958;2022-10-16T00:57:00;7.15;;;5.82;;
74229;SDS011;62589;12.568;99.958;2022-10-16T00:59:31;7.00;;;5.55;;
74229;SDS011;62589;12.568;99.958;2022-10-16T01:02:01;8.05;;;6.10;;
74229;SDS011;62589;12.568;99.958;2022-10-16T01:04:31;8.07;;;5.93;;
74229;SDS011;62589;12.568;99.958;2022-10-16T01:16:00;7.93;;;5.72;;
74229;SDS011;62589;12.568;99.958;2022-10-16T01:18:43;7.15;;;6.03;;
74229;SDS011;62589;12.568;99.958;2022-10-16T01:21:22;7.45;;;6.18;;
74229;SDS011;62589;12.568;99.958;2022-10-16T01:24:14;8.00;;;6.32;;
74229;SDS011;62589;12.568;99.958;2022-10-16T01:32:48;8.18;;;6.40;;
74229;SDS011;62589;12.568;99.958;2022-10-16T01:41:01;14.18;;;8.07;;
74229;SDS011;62589;12.568;99.958;2022-10-16T01:43:42;10.65;;;7.47;;
74229;SDS011;62589;12.568;99.958;2022-10-16T01:46:29;9.48;;;7.40;;
74229;SDS011;62589;12.568;99.958;2022-10-16T01:48:59;7.72;;;6.82;;
74229;SDS011;62589;12.568;99.958;2022-10-16T01:51:27;12.85;;;7.65;;
74229;SDS011;62589;12.568;99.958;2022-10-16T01:53:57;9.32;;;7.50;;
74229;SDS011;62589;12.568;99.958;2022-10-16T01:56:26;8.77;;;7.15;;
74229;SDS011;62589;12.568;99.958;2022-10-16T02:01:47;11.85;;;7.65;;
74229;SDS011;62589;12.568;99.958;2022-10-16T02:07:02;12.75;;;8.25;;
74229;SDS011;62589;12.568;99.958;2022-10-16T02:09:30;9.50;;;7.78;;
74229;SDS011;62589;12.568;99.958;2022-10-16T02:11:59;13.07;;;7.13;;
74229;SDS011;62589;12.568;99.958;2022-10-16T02:14:30;10.95;;;8.07;;
74229;SDS011;62589;12.568;99.958;2022-10-16T02:16:58;9.23;;;7.25;;
74229;SDS011;62589;12.568;99.958;2022-10-16T02:19:25;13.88;;;7.82;;
74229;SDS011;62589;12.568;99.958;2022-10-16T02:21:56;9.60;;;7.32;;
74229;SDS011;62589;12.568;99.958;2022-10-16T02:24:33;9.70;;;7.50;;
74229;SDS011;62589;12.568;99.958;2022-10-16T02:29:53;11.32;;;7.78;;
74229;SDS011;62589;12.568;99.958;2022-10-16T02:32:27;11.80;;;7.72;;
74229;SDS011;62589;12.568;99.958;2022-10-16T02:34:58;11.43;;;8.35;;
74229;SDS011;62589;12.568;99.958;2022-10-16T02:37:26;9.88;;;7.85;;
74229;SDS011;62589;12.568;99.958;2022-10-16T02:39:54;9.93;;;7.80;;
74229;SDS011;62589;12.568;99.958;2022-10-16T02:42:27;9.02;;;7.82;;
74229;SDS011;62589;12.568;99.958;2022-10-16T02:44:58;8.48;;;7.20;;
74229;SDS011;62589;12.568;99.958;2022-10-16T02:47:25;9.25;;;7.78;;
74229;SDS011;62589;12.568;99.958;2022-10-16T02:49:51;11.27;;;8.05;;
74229;SDS011;62589;12.568;99.958;2022-10-16T02:52:18;13.50;;;8.90;;
74229;SDS011;62589;12.568;99.958;2022-10-16T02:54:45;9.15;;;7.82;;
74229;SDS011;62589;12.568;99.958;2022-10-16T02:57:12;11.35;;;8.40;;
74229;SDS011;62589;12.568;99.958;2022-10-16T02:59:39;14.48;;;7.90;;
74229;SDS011;62589;12.568;99.958;2022-10-16T03:02:05;9.50;;;7.35;;
74229;SDS011;62589;12.568;99.958;2022-10-16T03:04:32;11.55;;;8.23;;
74229;SDS011;62589;12.568;99.958;2022-10-16T03:06:59;8.05;;;7.25;;
74229;SDS011;62589;12.568;99.958;2022-10-16T03:09:26;10.30;;;8.27;;
74229;SDS011;62589;12.568;99.958;2022-10-16T03:11:52;10.27;;;7.43;;
74229;SDS011;62589;12.568;99.958;2022-10-16T03:14:19;11.25;;;8.35;;
74229;SDS011;62589;12.568;99.958;2022-10-16T03:16:46;10.55;;;7.82;;
74229;SDS011;62589;12.568;99.958;2022-10-16T03:19:12;10.75;;;8.05;;
74229;SDS011;62589;12.568;99.958;2022-10-16T03:21:39;10.10;;;7.97;;
74229;SDS011;62589;12.568;99.958;2022-10-16T03:24:06;10.82;;;8.90;;
74229;SDS011;62589;12.568;99.958;2022-10-16T03:26:33;12.27;;;8.65;;
74229;SDS011;62589;12.568;99.958;2022-10-16T03:28:59;8.95;;;7.95;;
74229;SDS011;62589;12.568;99.958;2022-10-16T03:31:28;9.27;;;7.63;;
74229;SDS011;62589;12.568;99.958;2022-10-16T03:33:55;10.63;;;8.43;;
74229;SDS011;62589;12.568;99.958;2022-10-16T03:36:21;8.60;;;7.70;;
74229;SDS011;62589;12.568;99.958;2022-10-16T03:38:48;9.93;;;8.10;;
74229;SDS011;62589;12.568;99.958;2022-10-16T03:41:15;11.80;;;8.38;;
74229;SDS011;62589;12.568;99.958;2022-10-16T03:43:42;10.57;;;7.43;;
74229;SDS011;62589;12.568;99.958;2022-10-16T03:46:09;9.55;;;7.85;;
74229;SDS011;62589;12.568;99.958;2022-10-16T03:48:35;9.27;;;8.23;;
74229;SDS011;62589;12.568;99.958;2022-10-16T03:51:02;10.05;;;8.20;;
74229;SDS011;62589;12.568;99.958;2022-10-16T03:53:29;11.38;;;8.07;;
74229;SDS011;62589;12.568;99.958;2022-10-16T03:55:55;11.77;;;8.57;;
74229;SDS011;62589;12.568;99.958;2022-10-16T03:58:22;10.65;;;8.00;;
74229;SDS011;62589;12.568;99.958;2022-10-16T04:00:49;9.85;;;7.32;;
74229;SDS011;62589;12.568;99.958;2022-10-16T04:03:16;14.57;;;8.38;;
74229;SDS011;62589;12.568;99.958;2022-10-16T04:05:44;11.18;;;7.38;;
74229;SDS011;62589;12.568;99.958;2022-10-16T04:08:11;9.68;;;7.55;;
74229;SDS011;62589;12.568;99.958;2022-10-16T04:10:37;9.40;;;7.40;;
74229;SDS011;62589;12.568;99.958;2022-10-16T04:13:04;9.38;;;7.63;;
74229;SDS011;62589;12.568;99.958;2022-10-16T04:15:31;9.32;;;7.20;;
74229;SDS011;62589;12.568;99.958;2022-10-16T04:17:57;8.15;;;6.55;;
74229;SDS011;62589;12.568;99.958;2022-10-16T04:20:24;9.77;;;7.10;;
74229;SDS011;62589;12.568;99.958;2022-10-16T04:22:51;12.15;;;6.80;;
74229;SDS011;62589;12.568;99.958;2022-10-16T04:25:18;8.13;;;7.00;;
74229;SDS011;62589;12.568;99.958;2022-10-16T04:27:44;9.38;;;6.97;;
74229;SDS011;62589;12.568;99.958;2022-10-16T04:30:11;8.13;;;7.05;;
74229;SDS011;62589;12.568;99.958;2022-10-16T04:32:38;11.52;;;6.78;;
74229;SDS011;62589;12.568;99.958;2022-10-16T04:35:05;11.13;;;6.95;;
74229;SDS011;62589;12.568;99.958;2022-10-16T04:37:32;9.25;;;7.68;;
74229;SDS011;62589;12.568;99.958;2022-10-16T04:39:59;7.97;;;6.90;;
74229;SDS011;62589;12.568;99.958;2022-10-16T04:42:25;9.40;;;6.78;;
74229;SDS011;62589;12.568;99.958;2022-10-16T04:44:52;8.73;;;7.22;;
74229;SDS011;62589;12.568;99.958;2022-10-16T04:47:22;8.18;;;6.55;;
74229;SDS011;62589;12.568;99.958;2022-10-16T04:49:48;6.80;;;6.00;;
74229;SDS011;62589;12.568;99.958;2022-10-16T04:52:15;6.95;;;6.13;;
74229;SDS011;62589;12.568;99.958;2022-10-16T04:54:42;9.68;;;6.90;;
74229;SDS011;62589;12.568;99.958;2022-10-16T04:57:10;8.05;;;6.75;;
74229;SDS011;62589;12.568;99.958;2022-10-16T04:59:37;7.45;;;6.75;;
74229;SDS011;62589;12.568;99.958;2022-10-16T05:02:04;10.98;;;6.05;;
74229;SDS011;62589;12.568;99.958;2022-10-16T05:04:31;7.35;;;6.30;;
74229;SDS011;62589;12.568;99.958;2022-10-16T05:06:57;7.85;;;6.72;;
74229;SDS011;62589;12.568;99.958;2022-10-16T05:09:24;7.93;;;7.10;;
74229;SDS011;62589;12.568;99.958;2022-10-16T05:11:51;10.77;;;6.97;;
74229;SDS011;62589;12.568;99.958;2022-10-16T05:14:18;10.07;;;7.10;;
74229;SDS011;62589;12.568;99.958;2022-10-16T05:16:45;7.70;;;6.90;;
74229;SDS011;62589;12.568;99.958;2022-10-16T05:19:13;9.50;;;7.35;;
74229;SDS011;62589;12.568;99.958;2022-10-16T05:21:40;8.77;;;7.68;;
74229;SDS011;62589;12.568;99.958;2022-10-16T05:24:06;8.73;;;7.82;;
74229;SDS011;62589;12.568;99.958;2022-10-16T05:26:34;10.90;;;8.00;;
74229;SDS011;62589;12.568;99.958;2022-10-16T05:29:01;8.95;;;8.05;;
74229;SDS011;62589;12.568;99.958;2022-10-16T05:31:28;10.60;;;9.38;;
74229;SDS011;62589;12.568;99.958;2022-10-16T05:34:01;12.95;;;9.75;;
74229;SDS011;62589;12.568;99.958;2022-10-16T05:36:28;12.20;;;9.45;;
74229;SDS011;62589;12.568;99.958;2022-10-16T05:38:55;9.93;;;8.80;;
74229;SDS011;62589;12.568;99.958;2022-10-16T05:41:22;9.75;;;8.52;;
74229;SDS011;62589;12.568;99.958;2022-10-16T05:43:51;9.90;;;8.32;;
74229;SDS011;62589;12.568;99.958;2022-10-16T05:46:18;11.88;;;9.15;;
74229;SDS011;62589;12.568;99.958;2022-10-16T05:48:45;9.32;;;8.40;;
74229;SDS011;62589;12.568;99.958;2022-10-16T05:51:13;9.93;;;8.75;;
74229;SDS011;62589;12.568;99.958;2022-10-16T05:53:40;10.05;;;9.00;;
74229;SDS011;62589;12.568;99.958;2022-10-16T05:56:09;13.60;;;9.00;;
74229;SDS011;62589;12.568;99.958;2022-10-16T05:58:38;10.95;;;8.80;;
74229;SDS011;62589;12.568;99.958;2022-10-16T06:01:14;11.63;;;8.52;;
74229;SDS011;62589;12.568;99.958;2022-10-16T06:03:42;10.25;;;8.90;;
74229;SDS011;62589;12.568;99.958;2022-10-16T06:06:11;11.30;;;8.80;;
74229;SDS011;62589;12.568;99.958;2022-10-16T06:08:48;9.30;;;8.30;;
74229;SDS011;62589;12.568;99.958;2022-10-16T06:11:16;9.68;;;8.77;;
74229;SDS011;62589;12.568;99.958;2022-10-16T06:13:44;9.75;;;8.38;;
74229;SDS011;62589;12.568;99.958;2022-10-16T06:16:15;9.95;;;7.88;;
74229;SDS011;62589;12.568;99.958;2022-10-16T06:18:41;9.55;;;8.30;;
74229;SDS011;62589;12.568;99.958;2022-10-16T06:21:13;8.85;;;8.00;;
74229;SDS011;62589;12.568;99.958;2022-10-16T06:23:42;8.65;;;7.85;;
74229;SDS011;62589;12.568;99.958;2022-10-16T06:26:13;10.57;;;8.32;;
74229;SDS011;62589;12.568;99.958;2022-10-16T06:28:42;10.38;;;8.65;;
74229;SDS011;62589;12.568;99.958;2022-10-16T06:31:09;12.00;;;8.02;;
74229;SDS011;62589;12.568;99.958;2022-10-16T06:33:37;8.90;;;7.20;;
74229;SDS011;62589;12.568;99.958;2022-10-16T06:36:11;9.35;;;8.10;;
74229;SDS011;62589;12.568;99.958;2022-10-16T06:38:40;8.82;;;7.60;;
74229;SDS011;62589;12.568;99.958;2022-10-16T06:41:07;9.65;;;7.93;;
74229;SDS011;62589;12.568;99.958;2022-10-16T06:43:40;8.18;;;7.22;;
74229;SDS011;62589;12.568;99.958;2022-10-16T06:46:07;9.02;;;7.18;;
74229;SDS011;62589;12.568;99.958;2022-10-16T06:48:37;10.00;;;7.47;;
74229;SDS011;62589;12.568;99.958;2022-10-16T06:51:05;9.70;;;7.82;;
74229;SDS011;62589;12.568;99.958;2022-10-16T06:53:37;10.48;;;8.30;;
74229;SDS011;62589;12.568;99.958;2022-10-16T06:56:10;9.68;;;8.43;;
74229;SDS011;62589;12.568;99.958;2022-10-16T06:58:39;10.85;;;8.57;;
74229;SDS011;62589;12.568;99.958;2022-10-16T07:01:07;9.90;;;8.10;;
74229;SDS011;62589;12.568;99.958;2022-10-16T07:03:38;9.10;;;8.20;;
74229;SDS011;62589;12.568;99.958;2022-10-16T07:06:09;9.15;;;8.23;;
74229;SDS011;62589;12.568;99.958;2022-10-16T07:08:38;8.98;;;7.82;;
74229;SDS011;62589;12.568;99.958;2022-10-16T07:11:06;8.30;;;7.50;;
74229;SDS011;62589;12.568;99.958;2022-10-16T07:13:35;9.73;;;7.57;;
74229;SDS011;62589;12.568;99.958;2022-10-16T07:16:06;9.15;;;8.15;;
74229;SDS011;62589;12.568;99.958;2022-10-16T07:18:44;10.88;;;8.73;;
74229;SDS011;62589;12.568;99.958;2022-10-16T07:21:15;12.07;;;9.45;;
74229;SDS011;62589;12.568;99.958;2022-10-16T07:23:44;8.73;;;7.82;;
74229;SDS011;62589;12.568;99.958;2022-10-16T07:26:11;10.75;;;8.45;;
74229;SDS011;62589;12.568;99.958;2022-10-16T07:28:37;9.32;;;8.27;;
74229;SDS011;62589;12.568;99.958;2022-10-16T07:31:06;11.05;;;8.52;;
74229;SDS011;62589;12.568;99.958;2022-10-16T07:33:36;9.52;;;8.63;;
74229;SDS011;62589;12.568;99.958;2022-10-16T07:36:04;9.27;;;8.35;;
74229;SDS011;62589;12.568;99.958;2022-10-16T07:38:31;10.60;;;8.55;;
74229;SDS011;62589;12.568;99.958;2022-10-16T07:40:58;9.60;;;8.60;;
74229;SDS011;62589;12.568;99.958;2022-10-16T07:43:26;9.70;;;8.70;;
74229;SDS011;62589;12.568;99.958;2022-10-16T07:45:53;8.70;;;7.80;;
74229;SDS011;62589;12.568;99.958;2022-10-16T07:48:20;10.80;;;7.78;;
74229;SDS011;62589;12.568;99.958;2022-10-16T07:50:48;8.55;;;7.35;;
74229;SDS011;62589;12.568;99.958;2022-10-16T07:53:14;9.73;;;7.72;;
74229;SDS011;62589;12.568;99.958;2022-10-16T07:55:41;12.73;;;8.55;;
74229;SDS011;62589;12.568;99.958;2022-10-16T07:58:07;10.23;;;8.18;;
74229;SDS011;62589;12.568;99.958;2022-10-16T08:00:35;8.70;;;6.95;;
74229;SDS011;62589;12.568;99.958;2022-10-16T08:03:02;8.90;;;6.68;;
74229;SDS011;62589;12.568;99.958;2022-10-16T08:05:29;6.22;;;5.63;;
74229;SDS011;62589;12.568;99.958;2022-10-16T08:07:58;6.60;;;5.90;;
74229;SDS011;62589;12.568;99.958;2022-10-16T08:10:25;7.25;;;6.47;;
74229;SDS011;62589;12.568;99.958;2022-10-16T08:12:52;6.03;;;5.10;;
74229;SDS011;62589;12.568;99.958;2022-10-16T08:15:19;6.10;;;5.50;;
74229;SDS011;62589;12.568;99.958;2022-10-16T08:17:59;6.72;;;6.00;;
74229;SDS011;62589;12.568;99.958;2022-10-16T08:20:27;7.60;;;5.85;;
74229;SDS011;62589;12.568;99.958;2022-10-16T08:22:55;5.85;;;5.25;;
74229;SDS011;62589;12.568;99.958;2022-10-16T08:25:22;5.20;;;4.70;;
74229;SDS011;62589;12.568;99.958;2022-10-16T08:27:49;5.40;;;4.90;;
74229;SDS011;62589;12.568;99.958;2022-10-16T08:30:16;5.45;;;4.93;;
74229;SDS011;62589;12.568;99.958;2022-10-16T08:32:44;4.82;;;4.40;;
74229;SDS011;62589;12.568;99.958;2022-10-16T08:35:11;5.82;;;4.47;;
74229;SDS011;62589;12.568;99.958;2022-10-16T08:37:39;5.90;;;5.30;;
74229;SDS011;62589;12.568;99.958;2022-10-16T08:40:07;7.07;;;5.45;;
74229;SDS011;62589;12.568;99.958;2022-10-16T08:48:51;5.78;;;5.20;;
74229;SDS011;62589;12.568;99.958;2022-10-16T08:51:22;6.05;;;5.30;;
74229;SDS011;62589;12.568;99.958;2022-10-16T08:53:54;6.82;;;5.88;;
74229;SDS011;62589;12.568;99.958;2022-10-16T08:56:24;8.07;;;6.53;;
74229;SDS011;62589;12.568;99.958;2022-10-16T08:58:52;7.18;;;6.47;;
74229;SDS011;62589;12.568;99.958;2022-10-16T09:01:21;8.10;;;6.90;;
74229;SDS011;62589;12.568;99.958;2022-10-16T09:04:07;8.05;;;7.00;;
74229;SDS011;62589;12.568;99.958;2022-10-16T09:07:00;8.35;;;7.55;;
74229;SDS011;62589;12.568;99.958;2022-10-16T09:12:49;8.00;;;7.07;;
74229;SDS011;62589;12.568;99.958;2022-10-16T09:15:39;8.75;;;7.65;;
74229;SDS011;62589;12.568;99.958;2022-10-16T09:18:28;8.85;;;7.95;;
74229;SDS011;62589;12.568;99.958;2022-10-16T09:23:51;9.80;;;7.28;;
74229;SDS011;62589;12.568;99.958;2022-10-16T09:26:17;8.05;;;7.25;;
74229;SDS011;62589;12.568;99.958;2022-10-16T09:28:47;10.27;;;7.88;;
74229;SDS011;62589;12.568;99.958;2022-10-16T09:31:15;8.95;;;8.05;;
74229;SDS011;62589;12.568;99.958;2022-10-16T09:33:45;8.48;;;7.63;;
74229;SDS011;62589;12.568;99.958;2022-10-16T09:36:19;7.43;;;6.72;;
74229;SDS011;62589;12.568;99.958;2022-10-16T09:38:47;6.45;;;5.85;;
74229;SDS011;62589;12.568;99.958;2022-10-16T09:41:16;6.97;;;6.32;;
74229;SDS011;62589;12.568;99.958;2022-10-16T09:43:48;6.90;;;6.20;;
74229;SDS011;62589;12.568;99.958;2022-10-16T09:46:28;7.43;;;6.63;;
74229;SDS011;62589;12.568;99.958;2022-10-16T09:49:03;7.80;;;6.10;;
74229;SDS011;62589;12.568;99.958;2022-10-16T09:51:43;7.13;;;6.43;;
74229;SDS011;62589;12.568;99.958;2022-10-16T09:54:18;7.18;;;6.47;;
74229;SDS011;62589;12.568;99.958;2022-10-16T09:56:46;8.52;;;6.93;;
74229;SDS011;62589;12.568;99.958;2022-10-16T09:59:20;7.15;;;6.43;;
74229;SDS011;62589;12.568;99.958;2022-10-16T10:01:53;9.10;;;6.97;;
74229;SDS011;62589;12.568;99.958;2022-10-16T10:04:22;9.70;;;7.32;;
74229;SDS011;62589;12.568;99.958;2022-10-16T10:06:51;8.27;;;7.43;;
74229;SDS011;62589;12.568;99.958;2022-10-16T10:09:23;8.48;;;7.55;;
74229;SDS011;62589;12.568;99.958;2022-10-16T10:12:02;8.30;;;7.50;;
74229;SDS011;62589;12.568;99.958;2022-10-16T10:14:31;11.68;;;7.93;;
74229;SDS011;62589;12.568;99.958;2022-10-16T10:19:53;8.85;;;7.63;;
74229;SDS011;62589;12.568;99.958;2022-10-16T10:22:26;9.60;;;7.95;;
74229;SDS011;62589;12.568;99.958;2022-10-16T10:25:15;8.48;;;7.57;;
74229;SDS011;62589;12.568;99.958;2022-10-16T10:30:57;11.32;;;8.50;;
74229;SDS011;62589;12.568;99.958;2022-10-16T10:36:46;9.98;;;8.55;;
74229;SDS011;62589;12.568;99.958;2022-10-16T10:39:30;9.68;;;8.32;;
74229;SDS011;62589;12.568;99.958;2022-10-16T10:47:38;10.88;;;9.25;;
74229;SDS011;62589;12.568;99.958;2022-10-16T10:50:48;10.13;;;9.20;;
74229;SDS011;62589;12.568;99.958;2022-10-16T11:04:54;13.50;;;10.48;;
74229;SDS011;62589;12.568;99.958;2022-10-16T11:07:36;11.80;;;10.52;;
74229;SDS011;62589;12.568;99.958;2022-10-16T11:10:14;13.13;;;10.00;;
74229;SDS011;62589;12.568;99.958;2022-10-16T11:12:46;14.90;;;11.35;;
74229;SDS011;62589;12.568;99.958;2022-10-16T11:15:23;11.88;;;10.63;;
74229;SDS011;62589;12.568;99.958;2022-10-16T11:18:05;14.23;;;11.68;;
74229;SDS011;62589;12.568;99.958;2022-10-16T11:20:34;12.57;;;10.85;;
74229;SDS011;62589;12.568;99.958;2022-10-16T11:23:11;14.35;;;11.90;;
74229;SDS011;62589;12.568;99.958;2022-10-16T11:25:44;13.80;;;12.23;;
74229;SDS011;62589;12.568;99.958;2022-10-16T11:31:08;14.85;;;11.90;;
74229;SDS011;62589;12.568;99.958;2022-10-16T11:33:46;14.85;;;12.40;;
74229;SDS011;62589;12.568;99.958;2022-10-16T11:36:27;13.25;;;11.95;;
74229;SDS011;62589;12.568;99.958;2022-10-16T11:39:16;15.30;;;12.00;;
74229;SDS011;62589;12.568;99.958;2022-10-16T11:41:50;13.68;;;12.27;;
74229;SDS011;62589;12.568;99.958;2022-10-16T11:50:01;16.10;;;13.43;;
74229;SDS011;62589;12.568;99.958;2022-10-16T11:55:45;14.18;;;12.35;;
74229;SDS011;62589;12.568;99.958;2022-10-16T11:58:31;15.38;;;13.30;;
74229;SDS011;62589;12.568;99.958;2022-10-16T12:04:11;16.05;;;12.68;;
74229;SDS011;62589;12.568;99.958;2022-10-16T12:07:02;15.40;;;12.77;;
74229;SDS011;62589;12.568;99.958;2022-10-16T12:09:34;12.85;;;11.63;;
74229;SDS011;62589;12.568;99.958;2022-10-16T12:12:04;17.77;;;12.82;;
74229;SDS011;62589;12.568;99.958;2022-10-16T12:14:59;14.50;;;12.60;;
74229;SDS011;62589;12.568;99.958;2022-10-16T12:17:44;13.95;;;12.50;;
74229;SDS011;62589;12.568;99.958;2022-10-16T12:20:20;13.73;;;12.23;;
74229;SDS011;62589;12.568;99.958;2022-10-16T12:22:59;14.35;;;11.90;;
74229;SDS011;62589;12.568;99.958;2022-10-16T12:25:34;13.25;;;11.85;;
74229;SDS011;62589;12.568;99.958;2022-10-16T12:28:19;14.05;;;12.15;;
74229;SDS011;62589;12.568;99.958;2022-10-16T12:30:55;15.15;;;11.27;;
74229;SDS011;62589;12.568;99.958;2022-10-16T12:33:34;13.93;;;11.43;;
74229;SDS011;62589;12.568;99.958;2022-10-16T12:36:04;14.00;;;11.27;;
74229;SDS011;62589;12.568;99.958;2022-10-16T12:38:51;12.02;;;10.77;;
74229;SDS011;62589;12.568;99.958;2022-10-16T12:41:26;13.88;;;11.65;;
74229;SDS011;62589;12.568;99.958;2022-10-16T12:43:55;14.10;;;11.30;;
74229;SDS011;62589;12.568;99.958;2022-10-16T12:52:02;13.20;;;11.10;;
74229;SDS011;62589;12.568;99.958;2022-10-16T12:54:37;12.15;;;10.80;;
74229;SDS011;62589;12.568;99.958;2022-10-16T12:57:10;14.52;;;11.38;;
74229;SDS011;62589;12.568;99.958;2022-10-16T13:00:02;12.18;;;10.63;;
74229;SDS011;62589;12.568;99.958;2022-10-16T13:05:52;12.85;;;10.95;;
74229;SDS011;62589;12.568;99.958;2022-10-16T13:17:48;12.60;;;11.07;;
74229;SDS011;62589;12.568;99.958;2022-10-16T13:23:43;13.10;;;11.05;;
74229;SDS011;62589;12.568;99.958;2022-10-16T13:29:19;14.25;;;10.93;;
74229;SDS011;62589;12.568;99.958;2022-10-16T13:31:46;12.77;;;10.88;;
74229;SDS011;62589;12.568;99.958;2022-10-16T13:34:15;13.73;;;11.20;;
74229;SDS011;62589;12.568;99.958;2022-10-16T13:36:46;13.40;;;11.05;;
74229;SDS011;62589;12.568;99.958;2022-10-16T13:39:27;14.57;;;10.48;;
74229;SDS011;62589;12.568;99.958;2022-10-16T13:42:06;11.82;;;10.63;;
74229;SDS011;62589;12.568;99.958;2022-10-16T13:44:45;13.73;;;11.30;;
74229;SDS011;62589;12.568;99.958;2022-10-16T13:47:16;12.15;;;10.50;;
74229;SDS011;62589;12.568;99.958;2022-10-16T13:50:05;12.38;;;11.07;;
74229;SDS011;62589;12.568;99.958;2022-10-16T13:52:36;12.55;;;11.00;;
74229;SDS011;62589;12.568;99.958;2022-10-16T13:55:10;14.25;;;11.32;;
74229;SDS011;62589;12.568;99.958;2022-10-16T13:57:42;13.38;;;10.85;;
74229;SDS011;62589;12.568;99.958;2022-10-16T14:02:55;13.10;;;10.88;;
74229;SDS011;62589;12.568;99.958;2022-10-16T14:05:26;13.18;;;11.77;;
74229;SDS011;62589;12.568;99.958;2022-10-16T14:07:53;13.52;;;11.18;;
74229;SDS011;62589;12.568;99.958;2022-10-16T14:10:28;13.52;;;11.57;;
74229;SDS011;62589;12.568;99.958;2022-10-16T14:12:59;14.25;;;11.70;;
74229;SDS011;62589;12.568;99.958;2022-10-16T14:15:32;13.68;;;11.10;;
74229;SDS011;62589;12.568;99.958;2022-10-16T14:18:01;13.63;;;10.52;;
74229;SDS011;62589;12.568;99.958;2022-10-16T14:20:31;13.05;;;11.10;;
74229;SDS011;62589;12.568;99.958;2022-10-16T14:23:01;12.45;;;11.18;;
74229;SDS011;62589;12.568;99.958;2022-10-16T14:25:40;16.15;;;11.35;;
74229;SDS011;62589;12.568;99.958;2022-10-16T14:31:00;16.27;;;11.70;;
74229;SDS011;62589;12.568;99.958;2022-10-16T14:33:32;12.77;;;10.75;;
74229;SDS011;62589;12.568;99.958;2022-10-16T14:36:02;12.13;;;10.77;;
74229;SDS011;62589;12.568;99.958;2022-10-16T14:38:41;14.40;;;11.18;;
74229;SDS011;62589;12.568;99.958;2022-10-16T14:41:15;12.95;;;11.50;;
74229;SDS011;62589;12.568;99.958;2022-10-16T14:43:53;14.82;;;11.63;;
74229;SDS011;62589;12.568;99.958;2022-10-16T14:46:27;12.90;;;11.20;;
74229;SDS011;62589;12.568;99.958;2022-10-16T14:49:02;12.93;;;11.18;;
74229;SDS011;62589;12.568;99.958;2022-10-16T14:51:49;13.23;;;11.23;;
74229;SDS011;62589;12.568;99.958;2022-10-16T14:54:18;12.27;;;10.98;;
74229;SDS011;62589;12.568;99.958;2022-10-16T14:56:46;12.65;;;11.35;;
74229;SDS011;62589;12.568;99.958;2022-10-16T14:59:19;13.35;;;11.95;;
74229;SDS011;62589;12.568;99.958;2022-10-16T15:01:52;15.68;;;11.50;;
74229;SDS011;62589;12.568;99.958;2022-10-16T15:04:19;14.20;;;12.00;;
74229;SDS011;62589;12.568;99.958;2022-10-16T15:06:46;12.75;;;11.05;;
74229;SDS011;62589;12.568;99.958;2022-10-16T15:09:14;15.60;;;11.10;;
74229;SDS011;62589;12.568;99.958;2022-10-16T15:11:41;13.27;;;11.32;;
74229;SDS011;62589;12.568;99.958;2022-10-16T15:14:11;13.07;;;11.02;;
74229;SDS011;62589;12.568;99.958;2022-10-16T15:16:39;12.98;;;11.48;;
74229;SDS011;62589;12.568;99.958;2022-10-16T15:19:06;13.73;;;11.20;;
74229;SDS011;62589;12.568;99.958;2022-10-16T15:21:32;13.27;;;10.95;;
74229;SDS011;62589;12.568;99.958;2022-10-16T15:23:59;12.13;;;10.65;;
74229;SDS011;62589;12.568;99.958;2022-10-16T15:26:27;12.55;;;10.98;;
74229;SDS011;62589;12.568;99.958;2022-10-16T15:28:55;13.57;;;11.18;;
74229;SDS011;62589;12.568;99.958;2022-10-16T15:31:22;13.95;;;11.32;;
74229;SDS011;62589;12.568;99.958;2022-10-16T15:33:50;15.80;;;11.60;;
74229;SDS011;62589;12.568;99.958;2022-10-16T15:36:25;15.80;;;10.75;;
74229;SDS011;62589;12.568;99.958;2022-10-16T15:38:53;12.95;;;11.25;;
74229;SDS011;62589;12.568;99.958;2022-10-16T15:41:20;11.82;;;10.55;;
74229;SDS011;62589;12.568;99.958;2022-10-16T15:43:48;12.45;;;10.82;;
74229;SDS011;62589;12.568;99.958;2022-10-16T15:46:17;12.60;;;11.13;;
74229;SDS011;62589;12.568;99.958;2022-10-16T15:48:46;14.15;;;11.52;;
74229;SDS011;62589;12.568;99.958;2022-10-16T15:51:13;11.82;;;10.45;;
74229;SDS011;62589;12.568;99.958;2022-10-16T15:53:40;12.30;;;11.02;;
74229;SDS011;62589;12.568;99.958;2022-10-16T15:56:07;14.32;;;11.35;;
74229;SDS011;62589;12.568;99.958;2022-10-16T15:58:34;13.45;;;11.10;;
74229;SDS011;62589;12.568;99.958;2022-10-16T16:01:01;13.60;;;11.25;;
74229;SDS011;62589;12.568;99.958;2022-10-16T16:03:29;15.38;;;11.55;;
74229;SDS011;62589;12.568;99.958;2022-10-16T16:05:57;14.65;;;11.00;;
74229;SDS011;62589;12.568;99.958;2022-10-16T16:08:28;14.82;;;11.65;;
74229;SDS011;62589;12.568;99.958;2022-10-16T16:11:01;13.90;;;10.90;;
74229;SDS011;62589;12.568;99.958;2022-10-16T16:13:32;14.07;;;11.25;;
74229;SDS011;62589;12.568;99.958;2022-10-16T16:15:59;13.82;;;10.73;;
74229;SDS011;62589;12.568;99.958;2022-10-16T16:18:26;11.43;;;10.20;;
74229;SDS011;62589;12.568;99.958;2022-10-16T16:20:53;12.45;;;10.88;;
74229;SDS011;62589;12.568;99.958;2022-10-16T16:23:20;12.52;;;10.73;;
74229;SDS011;62589;12.568;99.958;2022-10-16T16:28:36;13.55;;;11.10;;
74229;SDS011;62589;12.568;99.958;2022-10-16T16:31:04;12.57;;;11.27;;
74229;SDS011;62589;12.568;99.958;2022-10-16T16:33:31;14.15;;;10.63;;
74229;SDS011;62589;12.568;99.958;2022-10-16T16:35:58;12.40;;;10.80;;
74229;SDS011;62589;12.568;99.958;2022-10-16T16:38:25;12.88;;;11.30;;
74229;SDS011;62589;12.568;99.958;2022-10-16T16:40:52;14.80;;;12.23;;
74229;SDS011;62589;12.568;99.958;2022-10-16T16:43:22;13.45;;;10.40;;